Time;durP1;ratioP1;P1;durP2;ratioP2;P2;SDS_P1;SDS_P2;PMS_P1;PMS_P2;Temp;Humidity;BMP_temperature;BMP_pressure;BME280_temperature;BME280_humidity;BME280_pressure;Samples;Min_cycle;Max_cycle;Signal;HPM_P1;HPM_P2
2020/12/10 00:00:15;;;;;;;30.58;15.60;;;3.10;99.90;;;;;;5064233;28;20287;-54
2020/12/10 00:02:41;;;;;;;28.63;14.00;;;2.90;99.90;;;;;;5064432;28;20063;-53
2020/12/10 00:05:08;;;;;;;20.25;11.40;;;2.80;99.90;;;;;;5065036;28;20107;-54
2020/12/10 00:07:35;;;;;;;20.65;11.05;;;2.80;99.90;;;;;;5065118;28;20169;-51
2020/12/10 00:10:02;;;;;;;20.77;10.05;;;2.60;99.90;;;;;;5064548;28;20029;-53
2020/12/10 00:12:27;;;;;;;17.77;9.50;;;2.70;99.90;;;;;;5064657;28;20027;-53
2020/12/10 00:14:56;;;;;;;17.48;9.25;;;2.70;99.90;;;;;;5064249;28;20028;-51
2020/12/10 00:17:28;;;;;;;15.73;9.75;;;2.60;99.90;;;;;;5064406;28;20066;-53
2020/12/10 00:19:54;;;;;;;21.35;10.93;;;2.70;99.90;;;;;;5064729;28;20029;-53
2020/12/10 00:22:20;;;;;;;20.50;10.30;;;2.80;99.90;;;;;;5064258;28;20566;-54
2020/12/10 00:24:47;;;;;;;21.75;11.55;;;2.70;99.90;;;;;;5064004;28;20024;-53
2020/12/10 00:27:17;;;;;;;19.73;10.98;;;2.70;99.90;;;;;;5064104;28;20017;-50
2020/12/10 00:29:45;;;;;;;18.23;10.35;;;2.70;99.90;;;;;;5064136;28;20024;-52
2020/12/10 00:32:12;;;;;;;17.67;9.82;;;2.70;99.90;;;;;;5064311;28;20416;-53
2020/12/10 00:34:38;;;;;;;17.65;9.45;;;2.60;99.90;;;;;;5064149;28;20399;-54
2020/12/10 00:37:06;;;;;;;18.30;9.75;;;2.50;99.90;;;;;;5063879;28;20066;-52
2020/12/10 00:39:33;;;;;;;18.83;10.45;;;2.50;99.90;;;;;;5063925;28;20543;-54
2020/12/10 00:41:59;;;;;;;17.48;9.90;;;2.30;99.90;;;;;;5064458;28;20456;-54
2020/12/10 00:44:24;;;;;;;15.38;9.27;;;2.10;99.90;;;;;;5063899;28;20033;-52
2020/12/10 00:46:50;;;;;;;15.55;8.70;;;2.20;99.90;;;;;;5064092;28;20056;-53
2020/12/10 00:49:15;;;;;;;14.27;8.18;;;2.20;99.90;;;;;;5063759;28;20024;-53
2020/12/10 00:51:46;;;;;;;15.98;9.23;;;2.50;99.90;;;;;;5063162;28;20107;-53
2020/12/10 00:54:12;;;;;;;18.05;10.23;;;2.60;99.90;;;;;;5063874;28;20016;-54
2020/12/10 00:56:39;;;;;;;19.58;10.73;;;2.50;99.90;;;;;;5064369;28;20028;-52
2020/12/10 00:59:04;;;;;;;15.68;10.02;;;2.50;99.90;;;;;;5064160;28;20029;-54
2020/12/10 01:01:31;;;;;;;19.23;10.88;;;2.50;99.90;;;;;;5063743;28;20082;-52
2020/12/10 01:03:57;;;;;;;15.85;9.23;;;2.40;99.90;;;;;;5062079;28;20017;-52
2020/12/10 01:06:22;;;;;;;18.25;10.60;;;2.60;99.90;;;;;;5068782;28;20021;-54
2020/12/10 01:08:49;;;;;;;19.10;10.63;;;2.40;99.90;;;;;;5067662;28;20021;-53
2020/12/10 01:11:16;;;;;;;19.30;11.35;;;2.50;99.90;;;;;;5067471;28;20094;-51
2020/12/10 01:13:43;;;;;;;19.70;10.63;;;2.50;99.90;;;;;;5067074;28;20459;-51
2020/12/10 01:16:08;;;;;;;22.65;13.15;;;2.50;99.90;;;;;;5068470;28;20052;-54
2020/12/10 01:18:34;;;;;;;22.13;12.23;;;2.60;99.90;;;;;;5067305;28;20052;-52
2020/12/10 01:21:00;;;;;;;21.88;11.82;;;2.60;99.90;;;;;;5066676;28;20499;-53
2020/12/10 01:23:25;;;;;;;22.20;12.52;;;2.60;99.90;;;;;;5067555;28;20035;-52
2020/12/10 01:25:51;;;;;;;25.42;13.55;;;2.50;99.90;;;;;;5066316;28;20532;-54
2020/12/10 01:28:16;;;;;;;20.80;11.85;;;2.50;99.90;;;;;;5068105;28;20043;-53
2020/12/10 01:30:42;;;;;;;21.98;11.43;;;2.60;99.90;;;;;;5067328;28;20114;-52
2020/12/10 01:33:08;;;;;;;20.02;11.48;;;2.50;99.90;;;;;;5067549;28;20025;-53
2020/12/10 01:35:33;;;;;;;20.52;11.43;;;2.50;99.90;;;;;;5066568;28;20131;-54
2020/12/10 01:37:59;;;;;;;17.65;10.65;;;2.60;99.90;;;;;;5067570;28;20032;-53
2020/12/10 01:40:26;;;;;;;17.60;10.10;;;2.50;99.90;;;;;;5066182;28;20151;-53
2020/12/10 01:42:51;;;;;;;18.88;10.48;;;2.50;99.90;;;;;;5067792;28;20028;-54
2020/12/10 01:45:17;;;;;;;18.23;10.70;;;2.50;99.90;;;;;;5066620;28;20162;-52
2020/12/10 01:47:43;;;;;;;19.55;10.30;;;2.40;99.90;;;;;;5066013;28;20035;-54
2020/12/10 01:50:09;;;;;;;15.77;9.02;;;2.40;99.90;;;;;;5066991;28;20060;-52
2020/12/10 01:52:35;;;;;;;16.90;9.25;;;2.40;99.90;;;;;;5066528;28;20071;-53
2020/12/10 01:55:02;;;;;;;14.85;8.60;;;2.50;99.90;;;;;;5066900;28;20495;-54
2020/12/10 01:57:28;;;;;;;15.93;9.30;;;2.50;99.90;;;;;;5081034;28;20409;-54
2020/12/10 01:59:55;;;;;;;15.18;8.90;;;2.50;99.90;;;;;;5087230;28;20032;-53
2020/12/10 02:02:21;;;;;;;15.52;8.40;;;2.50;99.90;;;;;;5087878;28;20020;-54
2020/12/10 02:04:47;;;;;;;16.23;8.82;;;2.60;99.90;;;;;;5078596;28;20035;-54
2020/12/10 02:07:12;;;;;;;13.82;8.52;;;2.60;99.90;;;;;;5067325;28;20048;-53
2020/12/10 02:09:38;;;;;;;15.50;8.55;;;2.70;99.90;;;;;;5066506;28;20024;-54
2020/12/10 02:12:03;;;;;;;18.45;10.23;;;2.80;99.90;;;;;;5066740;28;20034;-53
2020/12/10 02:14:33;;;;;;;19.27;10.57;;;2.70;99.90;;;;;;5065463;28;20051;-53
2020/12/10 02:17:02;;;;;;;20.55;11.40;;;2.70;99.90;;;;;;5066180;28;20044;-54
2020/12/10 02:19:28;;;;;;;19.20;10.90;;;2.60;99.90;;;;;;5066561;28;20258;-53
2020/12/10 02:21:54;;;;;;;18.88;10.00;;;2.60;99.90;;;;;;5066260;28;20148;-53
2020/12/10 02:24:20;;;;;;;15.27;8.45;;;2.50;99.90;;;;;;5067260;28;20033;-53
2020/12/10 02:26:45;;;;;;;14.88;8.65;;;2.50;99.90;;;;;;5065810;28;20021;-52
2020/12/10 02:29:13;;;;;;;15.13;8.35;;;2.50;99.90;;;;;;5066668;28;20142;-51
2020/12/10 02:31:38;;;;;;;14.98;8.77;;;2.50;99.90;;;;;;5066291;28;20029;-53
2020/12/10 02:34:07;;;;;;;15.43;9.18;;;2.50;99.90;;;;;;5066554;28;20029;-53
2020/12/10 02:36:36;;;;;;;13.50;7.82;;;2.60;99.90;;;;;;5066062;28;20038;-53
2020/12/10 02:39:04;;;;;;;14.23;8.52;;;2.60;99.90;;;;;;5065752;28;20035;-53
2020/12/10 02:41:30;;;;;;;12.70;7.38;;;2.50;99.90;;;;;;5066086;28;20039;-54
2020/12/10 02:43:57;;;;;;;12.77;7.82;;;2.50;99.90;;;;;;5065137;28;20032;-54
2020/12/10 02:46:22;;;;;;;12.55;7.45;;;2.40;99.90;;;;;;5065917;28;20107;-52
2020/12/10 02:48:48;;;;;;;12.07;6.85;;;2.50;99.90;;;;;;5066604;28;20120;-53
2020/12/10 02:51:14;;;;;;;12.65;7.30;;;2.50;99.90;;;;;;5080274;28;20292;-54
2020/12/10 02:53:40;;;;;;;12.77;7.68;;;2.50;99.90;;;;;;5085992;28;20025;-54
2020/12/10 02:56:10;;;;;;;11.02;6.10;;;2.60;99.90;;;;;;5084764;28;20061;-54
2020/12/10 02:58:37;;;;;;;10.75;6.82;;;2.60;99.90;;;;;;5067423;28;20563;-54
2020/12/10 03:01:04;;;;;;;10.27;6.25;;;2.60;99.90;;;;;;5065823;28;20028;-53
2020/12/10 03:03:29;;;;;;;11.98;6.80;;;2.70;99.90;;;;;;5065344;28;20111;-54
2020/12/10 03:05:55;;;;;;;15.15;8.32;;;2.60;99.90;;;;;;5066103;28;20148;-54
2020/12/10 03:08:21;;;;;;;14.90;8.88;;;2.40;99.90;;;;;;5067360;28;20050;-55
2020/12/10 03:10:48;;;;;;;14.80;8.80;;;2.20;99.90;;;;;;5065735;28;20045;-54
2020/12/10 03:13:15;;;;;;;14.95;8.43;;;2.20;99.90;;;;;;5065441;28;20021;-54
2020/12/10 03:15:41;;;;;;;14.65;7.97;;;2.10;99.90;;;;;;5065495;28;20110;-54
2020/12/10 03:18:07;;;;;;;14.27;7.90;;;2.00;99.90;;;;;;5064508;28;20035;-53
2020/12/10 03:20:32;;;;;;;15.93;8.38;;;2.00;99.90;;;;;;5065466;28;20032;-54
2020/12/10 03:22:59;;;;;;;12.85;7.18;;;2.00;99.90;;;;;;5065811;28;20016;-54
2020/12/10 03:25:24;;;;;;;10.85;7.30;;;1.90;99.90;;;;;;5065138;28;20064;-53
2020/12/10 03:27:50;;;;;;;11.35;6.90;;;1.90;99.90;;;;;;5064302;28;20060;-53
2020/12/10 03:30:16;;;;;;;13.13;7.28;;;1.90;99.90;;;;;;5065245;28;20032;-52
2020/12/10 03:32:43;;;;;;;12.25;6.93;;;1.90;99.90;;;;;;5064798;28;20103;-54
2020/12/10 03:35:08;;;;;;;13.38;7.93;;;2.00;99.90;;;;;;5065306;28;20028;-54
2020/12/10 03:37:34;;;;;;;13.13;7.60;;;2.10;99.90;;;;;;5064745;28;20104;-54
2020/12/10 03:40:00;;;;;;;14.85;8.68;;;2.10;99.90;;;;;;5064232;28;20145;-54
2020/12/10 03:42:26;;;;;;;19.95;10.35;;;2.00;99.90;;;;;;5064975;28;21241;-53
2020/12/10 03:44:51;;;;;;;23.02;10.80;;;2.00;99.90;;;;;;5064808;28;20048;-53
2020/12/10 03:47:17;;;;;;;21.38;10.23;;;2.00;99.90;;;;;;5064298;28;20032;-54
2020/12/10 03:49:44;;;;;;;27.83;12.20;;;1.90;99.90;;;;;;5078330;28;20411;-54
2020/12/10 03:52:10;;;;;;;21.92;10.32;;;2.00;99.90;;;;;;5084675;28;20032;-54
2020/12/10 03:54:36;;;;;;;26.23;12.68;;;1.70;99.90;;;;;;5085383;28;20024;-53
2020/12/10 03:57:03;;;;;;;21.80;10.75;;;1.80;99.90;;;;;;5067597;28;20028;-53
2020/12/10 03:59:29;;;;;;;17.70;9.48;;;1.70;99.90;;;;;;5064125;28;20028;-54
2020/12/10 04:01:55;;;;;;;17.90;9.77;;;1.70;99.90;;;;;;5064640;28;20020;-53
2020/12/10 04:04:22;;;;;;;14.35;7.88;;;1.80;99.90;;;;;;5064382;28;20024;-52
2020/12/10 04:06:48;;;;;;;16.58;9.20;;;1.80;99.90;;;;;;5079214;28;20383;-53
2020/12/10 04:09:13;;;;;;;18.05;8.85;;;1.70;99.90;;;;;;5084938;28;20031;-54
2020/12/10 04:11:40;;;;;;;14.13;8.68;;;1.70;99.90;;;;;;5084598;28;20502;-52
2020/12/10 04:14:06;;;;;;;16.92;9.38;;;1.60;99.90;;;;;;5085009;28;20031;-53
2020/12/10 04:16:32;;;;;;;17.45;9.60;;;1.60;99.90;;;;;;5071425;28;20025;-52
2020/12/10 04:18:58;;;;;;;17.00;9.50;;;1.60;99.90;;;;;;5063342;28;20409;-52
2020/12/10 04:21:25;;;;;;;19.90;10.38;;;1.50;99.90;;;;;;5064567;28;20020;-52
2020/12/10 04:23:51;;;;;;;19.20;10.73;;;1.40;99.90;;;;;;5063847;28;20502;-52
2020/12/10 04:26:17;;;;;;;21.52;10.90;;;1.40;99.90;;;;;;5064491;28;20032;-52
2020/12/10 04:28:43;;;;;;;20.08;10.52;;;1.40;99.90;;;;;;5063961;28;20174;-52
2020/12/10 04:31:09;;;;;;;18.70;9.20;;;1.30;99.90;;;;;;5064256;28;20113;-51
2020/12/10 04:33:35;;;;;;;15.85;8.75;;;1.30;99.90;;;;;;5064586;28;20052;-50
2020/12/10 04:36:03;;;;;;;17.33;9.68;;;1.30;99.90;;;;;;5063100;28;20410;-53
2020/12/10 04:38:30;;;;;;;14.60;8.60;;;1.40;99.90;;;;;;5063883;28;20084;-51
2020/12/10 04:40:58;;;;;;;18.40;9.65;;;1.40;99.90;;;;;;5063639;28;20475;-51
2020/12/10 04:43:27;;;;;;;16.08;9.23;;;1.40;99.90;;;;;;5063722;28;20021;-53
2020/12/10 04:45:58;;;;;;;17.23;9.60;;;1.40;99.90;;;;;;5072132;28;20077;-49
2020/12/10 04:48:29;;;;;;;13.38;8.35;;;1.30;99.90;;;;;;5084991;28;20023;-52
2020/12/10 04:50:58;;;;;;;14.45;8.52;;;1.30;99.90;;;;;;5085843;28;20040;-53
2020/12/10 04:53:26;;;;;;;16.90;8.40;;;1.30;99.90;;;;;;5084941;28;20028;-50
2020/12/10 04:55:53;;;;;;;15.63;8.35;;;1.30;99.90;;;;;;5065392;28;20479;-52
2020/12/10 04:58:19;;;;;;;15.20;8.48;;;1.30;99.90;;;;;;5065624;28;20031;-53
2020/12/10 05:00:45;;;;;;;14.43;7.97;;;1.40;99.90;;;;;;5064007;28;20029;-51
2020/12/10 05:03:12;;;;;;;12.43;7.00;;;1.40;99.90;;;;;;5065978;28;20604;-50
2020/12/10 05:05:38;;;;;;;13.35;7.63;;;1.50;99.90;;;;;;5064844;28;20501;-51
2020/12/10 05:08:04;;;;;;;13.98;7.72;;;1.30;99.90;;;;;;5067072;28;20020;-50
2020/12/10 05:10:42;;;;;;;13.35;7.18;;;1.30;99.90;;;;;;5065153;28;20041;-50
2020/12/10 05:13:10;;;;;;;13.30;7.47;;;1.30;99.90;;;;;;5065678;28;20075;-51
2020/12/10 05:15:36;;;;;;;13.90;8.55;;;1.20;99.90;;;;;;5065958;28;20568;-52
2020/12/10 05:18:10;;;;;;;14.93;8.40;;;1.20;99.90;;;;;;5063467;28;20434;-50
2020/12/10 05:20:47;;;;;;;15.07;9.38;;;1.20;99.90;;;;;;5064053;28;20086;-52
2020/12/10 05:23:14;;;;;;;17.90;8.50;;;1.10;99.90;;;;;;5063822;28;20386;-52
2020/12/10 05:25:46;;;;;;;13.98;7.60;;;1.00;99.90;;;;;;5063392;28;20037;-50
2020/12/10 05:28:13;;;;;;;15.23;8.75;;;1.00;99.90;;;;;;5066849;28;20521;-51
2020/12/10 05:30:40;;;;;;;16.45;9.05;;;0.80;99.90;;;;;;5065947;28;20037;-52
2020/12/10 05:33:10;;;;;;;16.67;8.88;;;0.50;99.90;;;;;;5066081;28;20124;-51
2020/12/10 05:35:36;;;;;;;17.77;8.93;;;0.70;99.90;;;;;;5063667;28;20105;-52
2020/12/10 05:38:13;;;;;;;18.73;9.32;;;0.90;99.90;;;;;;5063155;28;20510;-53
2020/12/10 05:40:39;;;;;;;14.23;7.50;;;0.30;99.90;;;;;;5062697;28;20124;-53
2020/12/10 05:43:06;;;;;;;18.25;9.05;;;0.70;99.90;;;;;;5064029;28;20062;-54
2020/12/10 05:45:37;;;;;;;28.90;13.23;;;0.90;99.90;;;;;;5063582;28;20457;-54
2020/12/10 05:48:03;;;;;;;26.52;11.82;;;0.80;99.90;;;;;;5064200;28;20463;-54
2020/12/10 05:50:31;;;;;;;20.95;9.30;;;1.00;99.90;;;;;;5081935;28;20339;-53
2020/12/10 05:53:20;;;;;;;15.88;8.77;;;1.10;99.90;;;;;;5086625;28;20032;-53
2020/12/10 05:55:48;;;;;;;13.38;7.90;;;1.10;99.90;;;;;;5086955;28;20020;-53
2020/12/10 05:58:19;;;;;;;16.15;8.05;;;1.30;99.90;;;;;;5086245;28;20319;-55
2020/12/10 06:00:45;;;;;;;11.07;6.05;;;1.40;99.90;;;;;;5084291;28;20581;-52
2020/12/10 06:03:11;;;;;;;9.63;5.93;;;1.50;99.90;;;;;;5087329;28;20099;-52
2020/12/10 06:05:38;;;;;;;8.60;4.80;;;1.70;99.90;;;;;;5086720;28;20108;-54
2020/12/10 06:08:08;;;;;;;7.07;4.43;;;2.00;99.90;;;;;;5087921;28;20020;-53
2020/12/10 06:10:41;;;;;;;8.77;4.85;;;2.20;99.90;;;;;;5067123;28;20035;-54
2020/12/10 06:13:08;;;;;;;13.68;6.82;;;2.20;99.90;;;;;;5066726;28;20025;-55
2020/12/10 06:15:34;;;;;;;15.45;6.47;;;2.10;99.90;;;;;;5066792;28;20036;-54
2020/12/10 06:18:10;;;;;;;13.63;7.22;;;1.90;99.90;;;;;;5065763;28;20039;-55
2020/12/10 06:20:43;;;;;;;14.15;7.45;;;2.00;99.90;;;;;;5066731;28;20047;-53
2020/12/10 06:23:27;;;;;;;12.27;6.45;;;1.80;99.90;;;;;;5066145;28;20425;-55
2020/12/10 06:25:54;;;;;;;12.45;7.03;;;1.90;99.90;;;;;;5066196;28;20024;-54
2020/12/10 06:28:22;;;;;;;13.55;7.35;;;1.90;99.90;;;;;;5066196;28;20060;-54
2020/12/10 06:31:03;;;;;;;11.07;6.07;;;1.80;99.90;;;;;;5066248;28;20024;-55
2020/12/10 06:33:41;;;;;;;13.50;7.05;;;1.60;99.90;;;;;;5066164;28;20035;-55
2020/12/10 06:36:26;;;;;;;12.35;6.65;;;1.50;99.90;;;;;;5066047;28;20094;-54
2020/12/10 06:38:54;;;;;;;11.60;6.07;;;1.50;99.90;;;;;;5066152;28;20025;-53
2020/12/10 06:41:21;;;;;;;12.18;6.70;;;1.50;99.90;;;;;;5066312;28;20033;-54
2020/12/10 06:43:47;;;;;;;10.68;6.07;;;1.50;99.90;;;;;;5066143;28;20305;-54
2020/12/10 06:46:13;;;;;;;12.73;6.43;;;1.50;99.90;;;;;;5065771;28;20025;-54
2020/12/10 06:48:44;;;;;;;12.13;7.13;;;1.40;99.90;;;;;;5066242;28;20031;-54
2020/12/10 06:51:16;;;;;;;12.73;7.40;;;1.30;99.90;;;;;;5065839;28;20024;-53
2020/12/10 06:54:00;;;;;;;15.52;7.45;;;1.60;99.90;;;;;;5065657;28;20055;-53
2020/12/10 06:56:28;;;;;;;15.70;7.70;;;1.70;99.90;;;;;;5065929;28;20539;-54
2020/12/10 06:58:57;;;;;;;20.08;8.32;;;1.80;99.90;;;;;;5065611;28;20407;-53
2020/12/10 07:01:28;;;;;;;13.98;7.88;;;1.50;99.90;;;;;;5069005;28;20426;-54
2020/12/10 07:04:08;;;;;;;16.30;7.07;;;1.70;99.90;;;;;;5077080;28;20024;-54
2020/12/10 07:06:34;;;;;;;16.33;7.13;;;1.50;99.90;;;;;;5065283;28;20400;-53
2020/12/10 07:08:59;;;;;;;13.98;6.38;;;1.60;99.90;;;;;;5065181;28;20035;-55
2020/12/10 07:11:32;;;;;;;17.90;8.60;;;1.70;99.90;;;;;;5065372;28;20123;-54
2020/12/10 07:13:59;;;;;;;15.65;8.00;;;1.40;99.90;;;;;;5064618;28;20328;-54
2020/12/10 07:16:31;;;;;;;18.67;8.05;;;1.50;99.90;;;;;;5073249;28;20107;-54
2020/12/10 07:18:58;;;;;;;19.98;9.27;;;1.60;99.90;;;;;;5085790;28;20020;-54
2020/12/10 07:21:24;;;;;;;19.77;9.13;;;1.70;99.90;;;;;;5072785;28;20032;-54
2020/12/10 07:23:53;;;;;;;13.25;7.88;;;1.70;99.90;;;;;;5065266;28;20063;-54
2020/12/10 07:26:18;;;;;;;11.60;6.43;;;1.70;99.90;;;;;;5070052;28;20073;-54
2020/12/10 07:28:47;;;;;;;12.75;5.45;;;1.80;99.90;;;;;;5067019;28;20017;-52
2020/12/10 07:31:17;;;;;;;9.68;5.50;;;1.90;99.90;;;;;;5067196;28;20047;-54
2020/12/10 07:33:43;;;;;;;10.88;5.22;;;1.90;99.90;;;;;;5066694;28;20024;-54
2020/12/10 07:36:09;;;;;;;9.02;5.40;;;1.90;99.90;;;;;;5064292;28;20445;-55
2020/12/10 07:38:35;;;;;;;9.07;4.55;;;1.80;99.90;;;;;;5067247;28;20035;-54
2020/12/10 07:41:01;;;;;;;10.57;5.72;;;1.80;99.90;;;;;;5066531;28;20502;-54
2020/12/10 07:43:27;;;;;;;13.23;6.85;;;1.70;99.90;;;;;;5072166;28;20774;-53
2020/12/10 07:45:53;;;;;;;15.10;8.35;;;1.80;99.90;;;;;;5065066;28;20104;-54
2020/12/10 07:48:19;;;;;;;15.90;7.95;;;1.80;99.90;;;;;;5078170;28;20024;-54
2020/12/10 07:50:46;;;;;;;17.30;7.75;;;1.80;99.90;;;;;;5076774;28;20051;-55
2020/12/10 07:53:11;;;;;;;16.15;7.93;;;1.90;99.90;;;;;;5064359;28;20020;-53
2020/12/10 07:55:44;;;;;;;16.20;8.25;;;1.90;99.90;;;;;;5064152;28;20082;-53
2020/12/10 07:58:09;;;;;;;16.85;8.70;;;1.90;99.90;;;;;;5066053;28;20024;-54
2020/12/10 08:00:36;;;;;;;20.08;9.70;;;1.90;99.90;;;;;;5066128;28;20074;-53
2020/12/10 08:03:21;;;;;;;18.55;8.38;;;1.90;99.90;;;;;;5064522;28;20490;-53
2020/12/10 08:06:01;;;;;;;25.08;8.85;;;1.90;99.90;;;;;;5064860;28;20082;-53
2020/12/10 08:08:39;;;;;;;19.60;9.68;;;1.80;99.90;;;;;;5064035;28;20037;-51
2020/12/10 08:11:19;;;;;;;13.55;7.65;;;1.90;99.90;;;;;;5065261;28;20031;-52
2020/12/10 08:14:08;;;;;;;13.10;6.93;;;2.00;99.90;;;;;;5063777;28;20445;-51
2020/12/10 08:16:42;;;;;;;14.77;7.38;;;2.00;99.90;;;;;;5065421;28;20150;-50
2020/12/10 08:19:18;;;;;;;12.60;7.43;;;2.10;99.90;;;;;;5065684;28;20028;-53
2020/12/10 08:21:45;;;;;;;13.23;6.90;;;2.00;99.90;;;;;;5065508;28;20046;-53
2020/12/10 08:24:14;;;;;;;14.10;7.07;;;2.00;99.90;;;;;;5065764;28;20021;-54
2020/12/10 08:26:41;;;;;;;15.13;7.20;;;2.00;99.90;;;;;;5065406;28;20027;-53
2020/12/10 08:29:07;;;;;;;15.60;7.05;;;2.00;99.90;;;;;;5065145;28;20029;-54
2020/12/10 08:31:34;;;;;;;19.05;8.02;;;2.10;99.90;;;;;;5064509;28;20023;-52
2020/12/10 08:34:00;;;;;;;21.80;9.25;;;2.00;99.90;;;;;;5064226;28;20052;-53
2020/12/10 08:36:30;;;;;;;21.63;10.25;;;2.10;99.90;;;;;;5061852;28;20133;-50
2020/12/10 08:38:57;;;;;;;25.42;10.43;;;2.10;99.90;;;;;;5063938;28;20032;-52
2020/12/10 08:41:28;;;;;;;23.75;10.75;;;2.20;99.90;;;;;;5063707;28;20013;-53
2020/12/10 08:44:00;;;;;;;18.70;10.77;;;2.30;99.90;;;;;;5063853;28;20498;-53
2020/12/10 08:46:26;;;;;;;22.00;12.20;;;2.30;99.90;;;;;;5063771;28;20020;-52
2020/12/10 08:48:53;;;;;;;27.92;14.65;;;2.40;99.90;;;;;;5063977;28;20031;-52
2020/12/10 08:51:18;;;;;;;30.30;15.30;;;2.40;99.90;;;;;;5063419;28;20036;-54
2020/12/10 08:53:49;;;;;;;20.83;11.88;;;2.50;99.90;;;;;;5063742;28;20033;-54
2020/12/10 08:56:25;;;;;;;19.38;10.20;;;2.50;99.90;;;;;;5063719;28;20021;-53
2020/12/10 08:58:51;;;;;;;14.35;8.02;;;2.60;99.90;;;;;;5063677;28;20028;-54
2020/12/10 09:01:17;;;;;;;14.30;8.35;;;2.70;99.90;;;;;;5063599;28;20051;-55
2020/12/10 09:03:43;;;;;;;13.20;7.82;;;2.70;99.90;;;;;;5063591;28;20031;-53
2020/12/10 09:06:08;;;;;;;11.93;7.30;;;2.30;99.90;;;;;;5063902;28;20527;-55
2020/12/10 09:08:34;;;;;;;12.43;7.10;;;2.30;99.90;;;;;;5064409;28;20032;-54
2020/12/10 09:11:00;;;;;;;13.93;6.95;;;2.40;99.90;;;;;;5063740;28;20033;-54
2020/12/10 09:13:26;;;;;;;10.20;6.50;;;2.60;99.90;;;;;;5063498;28;20032;-54
2020/12/10 09:15:52;;;;;;;11.90;6.82;;;2.70;99.90;;;;;;5063632;28;20095;-55
2020/12/10 09:18:18;;;;;;;11.13;6.78;;;2.70;99.90;;;;;;5063663;28;20166;-55
2020/12/10 09:20:44;;;;;;;12.23;7.43;;;2.60;99.90;;;;;;5063430;28;20078;-54
2020/12/10 09:23:12;;;;;;;13.25;8.40;;;2.40;99.90;;;;;;5063939;28;20495;-54
2020/12/10 09:25:39;;;;;;;12.25;7.05;;;2.70;99.90;;;;;;5063380;28;20495;-55
2020/12/10 09:28:08;;;;;;;11.45;6.70;;;2.80;99.90;;;;;;5068554;28;20437;-54
2020/12/10 09:30:33;;;;;;;10.10;6.18;;;2.90;99.90;;;;;;5079818;28;20027;-54
2020/12/10 09:33:00;;;;;;;10.82;5.97;;;2.90;99.90;;;;;;5069067;28;20032;-55
2020/12/10 09:35:27;;;;;;;10.52;5.82;;;2.90;99.90;;;;;;5079704;28;20035;-56
2020/12/10 09:37:52;;;;;;;10.50;5.90;;;3.00;99.90;;;;;;5069590;28;20134;-56
2020/12/10 09:40:18;;;;;;;9.60;6.00;;;3.00;99.90;;;;;;5069221;28;20044;-56
2020/12/10 09:42:46;;;;;;;8.60;5.22;;;3.10;99.90;;;;;;5068699;28;20063;-56
2020/12/10 09:45:12;;;;;;;12.02;6.20;;;3.00;99.90;;;;;;5069211;28;20016;-56
2020/12/10 09:47:41;;;;;;;11.10;5.65;;;3.10;99.90;;;;;;5070359;28;20059;-56
2020/12/10 09:50:07;;;;;;;9.15;5.50;;;3.10;99.90;;;;;;5075043;28;20020;-56
2020/12/10 09:52:37;;;;;;;10.07;5.82;;;3.20;99.90;;;;;;5077625;28;20027;-57
2020/12/10 09:55:34;;;;;;;12.45;7.05;;;3.30;99.90;;;;;;5089413;28;20020;-56
2020/12/10 09:57:49;;;;;;;16.20;7.22;;;3.30;99.90;;;;;;5069505;28;20479;-56
2020/12/10 10:00:16;;;;;;;18.35;7.65;;;3.20;99.90;;;;;;5071144;28;20111;-56
2020/12/10 10:02:42;;;;;;;13.10;6.88;;;3.30;99.90;;;;;;5065714;28;20024;-56
2020/12/10 10:05:07;;;;;;;11.73;6.05;;;3.40;99.90;;;;;;5066413;28;20445;-53
2020/12/10 10:07:34;;;;;;;13.32;6.40;;;3.50;99.90;;;;;;5066750;28;20176;-55
2020/12/10 10:10:00;;;;;;;11.75;6.30;;;3.50;99.90;;;;;;5065976;28;20413;-56
2020/12/10 10:12:25;;;;;;;10.10;5.50;;;3.40;99.90;;;;;;5065276;28;20029;-55
2020/12/10 10:14:51;;;;;;;8.90;5.00;;;3.40;99.90;;;;;;5066528;28;20052;-56
2020/12/10 10:17:16;;;;;;;10.23;5.75;;;3.30;99.90;;;;;;5066158;28;20042;-55
2020/12/10 10:19:42;;;;;;;8.48;5.38;;;3.40;99.90;;;;;;5066152;28;20317;-54
2020/12/10 10:22:10;;;;;;;9.32;4.82;;;3.50;99.90;;;;;;5066239;28;20096;-55
2020/12/10 10:24:37;;;;;;;6.90;4.65;;;3.50;99.90;;;;;;5066708;28;20044;-56
2020/12/10 10:27:02;;;;;;;8.55;4.95;;;3.60;99.90;;;;;;5066472;28;20411;-55
2020/12/10 10:29:28;;;;;;;8.80;5.03;;;3.60;99.90;;;;;;5065603;28;20042;-53
2020/12/10 10:31:53;;;;;;;9.27;5.53;;;3.60;99.90;;;;;;5065263;28;20036;-55
2020/12/10 10:34:20;;;;;;;9.63;5.63;;;3.70;99.90;;;;;;5065506;28;20024;-55
2020/12/10 10:36:48;;;;;;;7.63;4.85;;;3.70;99.90;;;;;;5065371;28;20033;-54
2020/12/10 10:39:14;;;;;;;8.73;4.93;;;3.80;99.90;;;;;;5065619;28;20040;-52
2020/12/10 10:41:42;;;;;;;8.35;5.25;;;3.90;99.90;;;;;;5065513;28;20028;-54
2020/12/10 10:44:08;;;;;;;7.35;4.28;;;4.00;99.90;;;;;;5067046;28;20025;-54
2020/12/10 10:46:33;;;;;;;7.32;4.47;;;3.90;99.90;;;;;;5086152;28;20042;-54
2020/12/10 10:48:59;;;;;;;6.40;3.80;;;4.00;99.90;;;;;;5085268;28;20028;-53
2020/12/10 10:51:25;;;;;;;6.32;4.15;;;4.00;99.90;;;;;;5081824;28;20387;-55
2020/12/10 10:53:51;;;;;;;7.85;4.10;;;4.00;99.90;;;;;;5083208;28;20509;-54
2020/12/10 10:56:23;;;;;;;7.75;4.40;;;4.10;99.90;;;;;;5064142;28;20028;-53
2020/12/10 10:58:49;;;;;;;9.23;4.68;;;4.20;99.90;;;;;;5064695;28;20058;-53
2020/12/10 11:01:15;;;;;;;10.25;5.32;;;4.20;99.90;;;;;;5085832;28;20055;-54
2020/12/10 11:03:41;;;;;;;10.15;5.40;;;4.20;99.90;;;;;;5084088;28;20028;-55
2020/12/10 11:06:09;;;;;;;12.20;5.75;;;4.30;99.90;;;;;;5081158;28;20028;-54
2020/12/10 11:08:35;;;;;;;11.90;6.15;;;4.40;99.90;;;;;;5070896;28;20590;-53
2020/12/10 11:11:01;;;;;;;13.60;6.75;;;4.50;99.90;;;;;;5065012;28;20044;-55
2020/12/10 11:13:27;;;;;;;14.55;6.35;;;4.40;99.90;;;;;;5064692;28;20105;-55
2020/12/10 11:15:53;;;;;;;10.13;5.47;;;4.40;99.90;;;;;;5063584;28;20032;-55
2020/12/10 11:18:19;;;;;;;10.45;5.57;;;4.50;99.90;;;;;;5064719;28;20513;-53
2020/12/10 11:20:45;;;;;;;9.75;5.10;;;4.40;99.90;;;;;;5064593;28;20020;-55
2020/12/10 11:23:13;;;;;;;9.68;5.15;;;4.50;99.90;;;;;;5065364;28;20031;-55
2020/12/10 11:25:40;;;;;;;7.28;4.20;;;4.50;99.90;;;;;;5064123;28;20032;-55
2020/12/10 11:28:06;;;;;;;6.93;4.47;;;4.50;99.90;;;;;;5065249;28;20450;-55
2020/12/10 11:30:32;;;;;;;6.68;4.00;;;4.60;99.90;;;;;;5064373;28;20382;-54
2020/12/10 11:32:57;;;;;;;7.03;3.90;;;4.60;99.90;;;;;;5068237;28;20221;-56
2020/12/10 11:35:23;;;;;;;5.53;3.63;;;4.70;99.90;;;;;;5079383;28;20036;-55
2020/12/10 11:37:50;;;;;;;5.78;3.33;;;4.70;99.90;;;;;;5080267;28;20506;-56
2020/12/10 11:40:16;;;;;;;4.95;3.42;;;4.70;99.90;;;;;;5064657;28;20443;-56
2020/12/10 11:42:41;;;;;;;7.57;3.17;;;4.80;99.90;;;;;;5064077;28;20039;-57
2020/12/10 11:45:07;;;;;;;5.03;3.40;;;4.70;99.90;;;;;;5064889;28;20028;-56
2020/12/10 11:47:33;;;;;;;4.63;2.92;;;4.80;99.90;;;;;;5063886;28;20028;-57
2020/12/10 11:49:58;;;;;;;4.85;3.15;;;4.90;99.90;;;;;;5065747;28;20102;-56
2020/12/10 11:52:24;;;;;;;5.40;3.40;;;4.90;99.90;;;;;;5083852;28;20367;-56
2020/12/10 11:54:50;;;;;;;4.53;2.95;;;5.00;99.90;;;;;;5084041;28;20035;-55
2020/12/10 11:57:15;;;;;;;5.60;3.38;;;5.00;99.90;;;;;;5084167;28;20024;-56
2020/12/10 11:59:41;;;;;;;4.47;3.10;;;5.00;99.90;;;;;;5083817;28;20028;-56
2020/12/10 12:02:08;;;;;;;5.00;3.05;;;5.00;99.90;;;;;;5085283;28;20102;-55
2020/12/10 12:04:34;;;;;;;5.47;3.10;;;5.00;99.90;;;;;;5084386;28;20024;-55
2020/12/10 12:07:01;;;;;;;4.80;3.05;;;5.10;99.90;;;;;;5084286;28;20031;-56
2020/12/10 12:09:27;;;;;;;6.63;3.35;;;5.10;99.90;;;;;;5066919;28;20368;-55
2020/12/10 12:11:53;;;;;;;4.47;3.00;;;5.10;99.90;;;;;;5067005;28;20035;-55
2020/12/10 12:14:19;;;;;;;4.45;2.65;;;5.10;99.90;;;;;;5063553;28;20033;-56
2020/12/10 12:16:46;;;;;;;4.82;3.00;;;5.00;99.90;;;;;;5072275;28;20024;-56
2020/12/10 12:19:11;;;;;;;4.93;2.85;;;5.10;99.90;;;;;;5070389;28;20052;-56
2020/12/10 12:21:37;;;;;;;3.63;2.60;;;5.10;99.90;;;;;;5072002;28;20536;-55
2020/12/10 12:24:02;;;;;;;3.75;3.00;;;5.20;99.90;;;;;;5063925;28;20502;-56
2020/12/10 12:26:30;;;;;;;4.65;3.05;;;5.20;99.90;;;;;;5082084;28;20066;-56
2020/12/10 12:28:57;;;;;;;4.93;3.03;;;5.10;99.90;;;;;;5079210;28;20525;-56
2020/12/10 12:31:34;;;;;;;5.15;2.88;;;5.20;99.90;;;;;;5066432;28;20082;-56
2020/12/10 12:34:00;;;;;;;5.93;3.28;;;5.20;99.90;;;;;;5075813;28;20119;-56
2020/12/10 12:36:27;;;;;;;5.30;3.13;;;5.20;99.90;;;;;;5081739;28;20387;-56
2020/12/10 12:38:54;;;;;;;5.50;3.28;;;5.20;99.90;;;;;;5079075;28;20024;-56
2020/12/10 12:41:25;;;;;;;6.97;4.25;;;5.20;99.90;;;;;;5063003;28;20607;-56
2020/12/10 12:43:51;;;;;;;7.35;4.32;;;5.20;99.90;;;;;;5063850;28;20417;-56
2020/12/10 12:46:16;;;;;;;9.05;4.43;;;5.20;99.90;;;;;;5068916;28;20103;-56
2020/12/10 12:48:43;;;;;;;7.70;4.13;;;5.30;99.90;;;;;;5067976;28;20016;-55